createdAt,value
2022-10-26T00:00:53.495Z,11.05
2022-10-26T00:03:19.954Z,10.18
2022-10-26T00:05:46.390Z,10.32
2022-10-26T00:08:12.968Z,9.90
2022-10-26T00:10:39.903Z,11.00
2022-10-26T00:13:10.697Z,9.80
2022-10-26T00:15:40.637Z,10.13
2022-10-26T00:18:07.040Z,10.05
2022-10-26T00:20:33.426Z,9.30
2022-10-26T00:22:59.828Z,9.80
2022-10-26T00:25:26.337Z,10.13
2022-10-26T00:27:53.147Z,9.88
2022-10-26T00:30:19.594Z,9.38
2022-10-26T00:32:45.989Z,8.77
2022-10-26T00:35:22.887Z,9.68
2022-10-26T00:37:55.899Z,9.30
2022-10-26T00:42:49.359Z,9.65
2022-10-26T00:45:15.996Z,9.73
2022-10-26T00:47:48.721Z,9.70
2022-10-26T00:50:22.602Z,8.95
2022-10-26T00:52:51.496Z,9.20
2022-10-26T00:55:21.335Z,9.35
2022-10-26T00:57:51.767Z,9.82
2022-10-26T01:00:18.732Z,9.77
2022-10-26T01:02:48.006Z,9.52
2022-10-26T01:09:01.189Z,10.40
2022-10-26T01:11:28.790Z,9.52
2022-10-26T01:13:57.130Z,10.23
2022-10-26T01:16:46.095Z,9.57
2022-10-26T01:19:45.610Z,10.13
2022-10-26T01:22:11.956Z,8.95
2022-10-26T01:25:17.069Z,8.82
2022-10-26T01:27:47.898Z,9.23
2022-10-26T01:30:30.388Z,9.82
2022-10-26T01:33:17.559Z,8.80
2022-10-26T01:36:08.342Z,8.82
2022-10-26T01:38:57.587Z,9.02
2022-10-26T01:41:31.860Z,8.90
2022-10-26T01:44:28.749Z,9.27
2022-10-26T01:46:57.841Z,9.23
2022-10-26T01:49:28.977Z,8.60
2022-10-26T01:51:55.378Z,9.75
2022-10-26T01:54:21.802Z,9.07
2022-10-26T01:56:52.005Z,9.20
2022-10-26T01:59:47.913Z,8.98
2022-10-26T02:02:58.164Z,9.02
2022-10-26T02:05:36.306Z,9.68
2022-10-26T02:08:26.542Z,8.63
2022-10-26T02:11:31.543Z,9.02
2022-10-26T02:14:12.367Z,9.18
2022-10-26T02:16:58.394Z,9.10
2022-10-26T02:19:42.132Z,8.30
2022-10-26T02:22:34.147Z,8.50
2022-10-26T02:25:07.404Z,8.48
2022-10-26T02:27:41.451Z,8.30
2022-10-26T02:30:09.478Z,8.63
2022-10-26T02:32:40.406Z,9.57
2022-10-26T02:35:07.189Z,9.00
2022-10-26T02:37:37.100Z,9.73
2022-10-26T02:40:09.603Z,8.85
2022-10-26T02:42:37.514Z,8.95
2022-10-26T02:45:09.986Z,9.38
2022-10-26T02:47:36.566Z,9.57
2022-10-26T02:50:03.540Z,9.55
2022-10-26T02:52:39.025Z,9.63
2022-10-26T02:55:12.446Z,9.00
2022-10-26T02:57:42.212Z,8.90
2022-10-26T03:00:14.658Z,8.98
2022-10-26T03:02:48.579Z,9.35
2022-10-26T03:05:24.832Z,9.35
2022-10-26T03:07:51.662Z,8.48
2022-10-26T03:10:18.268Z,8.30
2022-10-26T03:12:45.048Z,8.55
2022-10-26T03:15:12.201Z,12.02
2022-10-26T03:17:38.596Z,9.75
2022-10-26T03:20:05.695Z,8.60
2022-10-26T03:22:32.117Z,9.25
2022-10-26T03:24:58.708Z,9.20
2022-10-26T03:27:26.882Z,8.50
2022-10-26T03:29:53.908Z,7.82
2022-10-26T03:32:20.346Z,9.27
2022-10-26T03:34:46.788Z,8.02
2022-10-26T03:37:13.271Z,8.10
2022-10-26T03:39:39.686Z,7.32
2022-10-26T03:42:06.093Z,8.43
2022-10-26T03:44:32.495Z,8.35
2022-10-26T03:46:58.913Z,8.65
2022-10-26T03:49:25.332Z,7.85
2022-10-26T03:51:51.771Z,8.50
2022-10-26T03:54:18.563Z,7.90
2022-10-26T03:56:45.031Z,8.00
2022-10-26T03:59:11.430Z,8.32
2022-10-26T04:01:38.913Z,7.35
2022-10-26T04:04:05.568Z,7.45
2022-10-26T04:06:32.017Z,8.15
2022-10-26T04:09:02.340Z,9.52
2022-10-26T04:11:29.537Z,8.85
2022-10-26T04:13:56.011Z,7.85
2022-10-26T04:16:22.387Z,8.15
2022-10-26T04:18:48.761Z,8.75
2022-10-26T04:21:15.166Z,8.80
2022-10-26T04:23:41.610Z,8.00
2022-10-26T04:26:08.076Z,7.68
2022-10-26T04:28:34.577Z,8.18
2022-10-26T04:31:01.110Z,7.93
2022-10-26T04:33:27.544Z,8.43
2022-10-26T04:35:59.148Z,9.10
2022-10-26T04:40:52.119Z,8.07
2022-10-26T04:43:18.679Z,8.27
2022-10-26T04:45:45.101Z,8.43
2022-10-26T04:48:13.360Z,8.23
2022-10-26T04:50:40.489Z,7.13
2022-10-26T04:53:08.141Z,8.20
2022-10-26T04:55:35.314Z,7.82
2022-10-26T04:58:02.381Z,8.45
2022-10-26T05:00:30.950Z,8.20
2022-10-26T05:03:01.667Z,8.52
2022-10-26T05:05:29.120Z,9.17
2022-10-26T05:07:56.830Z,8.25
2022-10-26T05:10:23.994Z,8.35
2022-10-26T05:12:55.009Z,10.30
2022-10-26T05:15:22.232Z,9.13
2022-10-26T05:18:03.023Z,9.27
2022-10-26T05:20:31.381Z,9.40
2022-10-26T05:22:59.551Z,8.38
2022-10-26T05:25:26.280Z,8.82
2022-10-26T05:27:56.974Z,8.82
2022-10-26T05:30:23.414Z,7.80
2022-10-26T05:32:56.953Z,8.75
2022-10-26T05:35:24.077Z,8.38
2022-10-26T05:37:50.520Z,7.85
2022-10-26T05:40:17.660Z,8.05
2022-10-26T05:42:44.812Z,8.18
2022-10-26T05:45:12.282Z,9.07
2022-10-26T05:47:42.898Z,8.68
2022-10-26T05:50:10.748Z,9.15
2022-10-26T05:52:44.839Z,8.65
2022-10-26T05:55:14.322Z,8.55
2022-10-26T05:57:41.570Z,9.50
2022-10-26T06:00:23.239Z,8.38
2022-10-26T06:02:55.838Z,8.93
2022-10-26T06:05:26.238Z,9.68
2022-10-26T06:07:52.946Z,9.10
2022-10-26T06:10:19.713Z,9.43
2022-10-26T06:12:46.701Z,9.75
2022-10-26T06:15:19.118Z,9.50
2022-10-26T06:18:17.163Z,9.55
2022-10-26T06:21:23.721Z,10.55
2022-10-26T06:24:02.562Z,11.10
2022-10-26T06:26:53.460Z,10.23
2022-10-26T06:29:36.115Z,10.02
2022-10-26T06:32:02.799Z,9.68
2022-10-26T06:34:35.617Z,9.98
2022-10-26T06:37:03.079Z,10.48
2022-10-26T06:39:35.168Z,9.88
2022-10-26T06:42:02.035Z,10.88
2022-10-26T06:44:28.857Z,9.65
2022-10-26T06:47:09.918Z,10.10
2022-10-26T06:49:38.267Z,10.55
2022-10-26T06:52:07.489Z,10.13
2022-10-26T06:55:00.768Z,10.43
2022-10-26T06:57:35.481Z,10.60
2022-10-26T07:00:08.471Z,10.00
2022-10-26T07:02:35.065Z,10.18
2022-10-26T07:05:01.585Z,10.20
2022-10-26T07:07:31.072Z,9.98
2022-10-26T07:09:57.734Z,10.75
2022-10-26T07:12:24.170Z,10.10
2022-10-26T07:14:50.625Z,10.13
2022-10-26T07:17:17.068Z,9.43
2022-10-26T07:19:44.845Z,11.25
2022-10-26T07:22:11.494Z,10.63
2022-10-26T07:24:37.991Z,10.15
2022-10-26T07:27:04.434Z,10.52
2022-10-26T07:29:30.921Z,9.63
2022-10-26T07:31:57.486Z,10.68
2022-10-26T07:34:23.990Z,9.43
2022-10-26T07:36:51.527Z,9.77
2022-10-26T07:39:18.062Z,10.27
2022-10-26T07:41:45.589Z,10.40
2022-10-26T07:44:11.999Z,10.18
2022-10-26T07:46:38.400Z,10.27
2022-10-26T07:49:04.814Z,10.70
2022-10-26T07:51:31.238Z,10.50
2022-10-26T07:53:57.716Z,10.40
2022-10-26T07:56:24.177Z,9.82
2022-10-26T07:58:53.083Z,10.38
2022-10-26T08:01:20.129Z,9.20
2022-10-26T08:03:46.901Z,10.13
2022-10-26T08:06:13.738Z,9.52
2022-10-26T08:08:43.615Z,10.25
2022-10-26T08:11:13.440Z,9.68
2022-10-26T08:13:39.933Z,10.35
2022-10-26T08:16:06.886Z,8.93
2022-10-26T08:18:33.630Z,8.55
2022-10-26T08:21:12.281Z,8.07
2022-10-26T08:23:41.907Z,8.43
2022-10-26T08:26:11.355Z,8.90
2022-10-26T08:28:38.651Z,8.57
2022-10-26T08:31:05.807Z,7.75
2022-10-26T08:33:32.543Z,7.47
2022-10-26T08:36:00.859Z,7.55
2022-10-26T08:38:28.218Z,7.13
2022-10-26T08:40:57.485Z,5.97
2022-10-26T08:44:02.007Z,6.32
2022-10-26T08:46:35.055Z,6.18
2022-10-26T08:49:11.949Z,6.38
2022-10-26T08:51:42.526Z,6.05
2022-10-26T08:54:48.944Z,5.97
2022-10-26T08:57:22.441Z,5.85
2022-10-26T08:59:53.328Z,6.00
2022-10-26T09:02:20.927Z,5.63
2022-10-26T09:04:47.441Z,6.03
2022-10-26T09:07:55.802Z,6.13
2022-10-26T09:10:41.477Z,5.72
2022-10-26T09:13:36.910Z,5.75
2022-10-26T09:16:24.963Z,5.28
2022-10-26T09:19:23.580Z,6.15
2022-10-26T09:22:12.361Z,5.80
2022-10-26T09:25:02.864Z,5.25
2022-10-26T09:27:43.241Z,4.82
2022-10-26T09:30:15.467Z,5.47
2022-10-26T09:32:46.428Z,5.13
2022-10-26T09:35:23.063Z,5.63
2022-10-26T09:38:06.341Z,4.90
2022-10-26T09:40:47.773Z,5.03
2022-10-26T09:43:18.530Z,5.22
2022-10-26T09:45:49.090Z,4.47
2022-10-26T09:48:22.533Z,4.97
2022-10-26T09:50:51.313Z,4.35
2022-10-26T09:53:17.835Z,4.50
2022-10-26T09:55:47.418Z,4.40
2022-10-26T09:58:47.180Z,4.45
2022-10-26T10:01:30.330Z,4.75
2022-10-26T10:04:28.409Z,4.88
2022-10-26T10:07:00.607Z,4.53
2022-10-26T10:09:27.167Z,5.45
2022-10-26T10:11:57.916Z,4.75
2022-10-26T10:14:28.518Z,3.80
2022-10-26T10:16:56.408Z,4.25
2022-10-26T10:19:25.711Z,5.57
2022-10-26T10:21:56.635Z,4.40
2022-10-26T10:24:24.141Z,3.75
2022-10-26T10:26:59.855Z,3.97
2022-10-26T10:29:42.293Z,4.03
2022-10-26T10:32:15.426Z,3.92
2022-10-26T10:34:42.232Z,4.40
2022-10-26T10:37:25.297Z,4.15
2022-10-26T10:40:00.531Z,4.07
2022-10-26T10:42:37.074Z,3.78
2022-10-26T10:45:05.287Z,4.22
2022-10-26T10:47:33.572Z,4.45
2022-10-26T10:50:19.938Z,4.20
2022-10-26T10:52:47.310Z,4.00
2022-10-26T10:55:13.948Z,4.75
2022-10-26T10:58:05.139Z,4.18
2022-10-26T11:00:36.255Z,4.28
2022-10-26T11:03:19.200Z,3.60
2022-10-26T11:06:05.015Z,4.57
2022-10-26T11:08:37.206Z,4.53
2022-10-26T11:11:07.017Z,4.45
2022-10-26T11:13:51.549Z,4.20
2022-10-26T11:16:30.202Z,3.75
2022-10-26T11:19:04.077Z,3.67
2022-10-26T11:21:33.900Z,3.20
2022-10-26T11:24:11.385Z,3.10
2022-10-26T11:26:46.234Z,2.92
2022-10-26T11:29:39.861Z,3.33
2022-10-26T11:32:16.689Z,3.17
2022-10-26T11:34:50.491Z,3.00
2022-10-26T11:37:25.833Z,3.40
2022-10-26T11:40:36.678Z,2.40
2022-10-26T11:43:08.820Z,2.90
2022-10-26T11:45:39.734Z,2.72
2022-10-26T11:48:51.257Z,3.45
2022-10-26T11:51:24.202Z,2.67
2022-10-26T11:53:51.505Z,2.58
2022-10-26T11:56:38.463Z,2.38
2022-10-26T11:59:06.996Z,2.33
2022-10-26T12:01:34.362Z,2.67
2022-10-26T12:04:02.465Z,2.42
2022-10-26T12:06:32.701Z,2.47
2022-10-26T12:09:12.866Z,2.63
2022-10-26T12:12:02.841Z,2.42
2022-10-26T12:15:04.100Z,2.15
2022-10-26T12:17:35.063Z,2.35
2022-10-26T12:20:26.653Z,3.63
2022-10-26T12:22:53.338Z,1.80
2022-10-26T12:25:22.018Z,2.17
2022-10-26T12:30:19.664Z,2.75
2022-10-26T12:32:48.330Z,2.22
2022-10-26T12:35:40.167Z,2.00
2022-10-26T12:38:21.719Z,2.00
2022-10-26T12:40:48.994Z,2.40
2022-10-26T12:43:15.338Z,1.80
2022-10-26T12:45:43.616Z,1.75
2022-10-26T12:48:38.505Z,1.75
2022-10-26T12:51:27.225Z,1.67
2022-10-26T12:54:02.585Z,1.60
2022-10-26T12:56:50.703Z,1.67
2022-10-26T12:59:40.543Z,1.52
2022-10-26T13:02:25.283Z,1.80
2022-10-26T13:05:22.422Z,1.75
2022-10-26T13:07:49.548Z,2.00
2022-10-26T13:10:24.101Z,1.83
2022-10-26T13:12:57.023Z,1.70
2022-10-26T13:15:26.143Z,2.00
2022-10-26T13:18:14.264Z,1.90
2022-10-26T13:21:11.550Z,1.48
2022-10-26T13:23:40.708Z,1.60
2022-10-26T13:26:17.249Z,1.80
2022-10-26T13:29:01.537Z,1.75
2022-10-26T13:31:34.465Z,1.83
2022-10-26T13:34:04.423Z,1.58
2022-10-26T13:36:50.025Z,1.52
2022-10-26T13:39:26.470Z,1.65
2022-10-26T13:41:55.566Z,2.08
2022-10-26T13:44:39.571Z,2.10
2022-10-26T13:47:21.952Z,2.78
2022-10-26T13:49:52.966Z,2.00
2022-10-26T13:52:28.971Z,2.13
2022-10-26T13:54:59.880Z,2.45
2022-10-26T13:57:40.528Z,1.55
2022-10-26T14:00:19.248Z,1.77
2022-10-26T14:02:45.790Z,1.60
2022-10-26T14:05:16.866Z,1.83
2022-10-26T14:07:54.045Z,1.83
2022-10-26T14:10:24.884Z,2.22
2022-10-26T14:12:52.005Z,2.85
2022-10-26T14:15:30.819Z,2.22
2022-10-26T14:17:59.650Z,2.08
2022-10-26T14:20:27.866Z,1.48
2022-10-26T14:22:54.421Z,3.08
2022-10-26T14:25:36.155Z,2.00
2022-10-26T14:28:29.743Z,1.55
2022-10-26T14:31:21.046Z,1.50
2022-10-26T14:33:47.605Z,1.40
2022-10-26T14:36:15.643Z,2.17
2022-10-26T14:38:46.443Z,2.03
2022-10-26T14:41:15.978Z,2.07
2022-10-26T14:43:43.900Z,1.70
2022-10-26T14:46:18.553Z,1.95
2022-10-26T14:48:54.772Z,2.03
2022-10-26T14:51:26.655Z,1.60
2022-10-26T14:53:56.396Z,1.90
2022-10-26T14:56:31.354Z,1.58
2022-10-26T14:58:58.603Z,1.90
2022-10-26T15:01:30.318Z,1.92
2022-10-26T15:04:06.258Z,2.08
2022-10-26T15:06:42.074Z,2.65
2022-10-26T15:09:32.888Z,2.80
2022-10-26T15:11:59.956Z,3.72
2022-10-26T15:14:26.389Z,3.00
2022-10-26T15:16:56.703Z,2.88
2022-10-26T15:19:24.044Z,3.38
2022-10-26T15:21:52.408Z,4.63
2022-10-26T15:24:18.976Z,3.10
2022-10-26T15:26:45.428Z,3.33
2022-10-26T15:29:42.489Z,3.72
2022-10-26T15:32:31.821Z,4.28
2022-10-26T15:35:19.842Z,2.90
2022-10-26T15:37:51.445Z,3.72
2022-10-26T15:42:49.114Z,2.40
2022-10-26T15:45:20.988Z,3.15
2022-10-26T15:50:19.814Z,2.60
2022-10-26T15:52:49.151Z,3.65
2022-10-26T15:55:17.430Z,3.33
2022-10-26T15:57:43.973Z,2.80
2022-10-26T16:00:16.757Z,2.67
2022-10-26T16:02:45.165Z,3.20
2022-10-26T16:05:13.893Z,3.13
2022-10-26T16:07:43.265Z,4.18
2022-10-26T16:10:16.720Z,3.55
2022-10-26T16:12:43.175Z,3.70
2022-10-26T16:15:16.562Z,3.63
2022-10-26T16:17:43.028Z,4.53
2022-10-26T16:20:15.205Z,3.90
2022-10-26T16:22:46.894Z,3.65
2022-10-26T16:27:40.727Z,3.90
2022-10-26T16:30:07.888Z,3.58
2022-10-26T16:32:34.485Z,4.20
2022-10-26T16:35:00.972Z,3.85
2022-10-26T16:37:30.212Z,5.22
2022-10-26T16:39:57.086Z,3.88
2022-10-26T16:42:23.672Z,4.82
2022-10-26T16:44:50.167Z,3.70
2022-10-26T16:47:16.733Z,3.88
2022-10-26T16:49:43.257Z,4.13
2022-10-26T16:52:10.569Z,3.85
2022-10-26T16:54:37.024Z,3.88
2022-10-26T16:57:03.820Z,4.30
2022-10-26T16:59:30.587Z,3.70
2022-10-26T17:01:57.086Z,3.13
2022-10-26T17:04:23.958Z,3.40
2022-10-26T17:06:50.676Z,3.92
2022-10-26T17:09:17.100Z,3.83
2022-10-26T17:11:43.551Z,3.67
2022-10-26T17:14:10.042Z,4.20
2022-10-26T17:16:36.530Z,6.15
2022-10-26T17:19:03.153Z,4.72
2022-10-26T17:21:32.351Z,4.15
2022-10-26T17:23:58.967Z,3.85
2022-10-26T17:26:25.686Z,3.63
2022-10-26T17:28:53.597Z,3.25
2022-10-26T17:31:20.335Z,4.55
2022-10-26T17:33:50.872Z,4.07
2022-10-26T17:36:22.519Z,3.10
2022-10-26T17:38:51.441Z,3.42
2022-10-26T17:41:20.065Z,4.15
2022-10-26T17:43:48.324Z,3.63
2022-10-26T17:46:17.860Z,4.28
2022-10-26T17:48:44.480Z,3.67
2022-10-26T17:51:17.328Z,4.97
2022-10-26T17:53:47.430Z,3.45
2022-10-26T17:56:22.178Z,4.53
2022-10-26T17:59:00.231Z,4.53
2022-10-26T18:01:28.288Z,3.70
2022-10-26T18:03:55.685Z,4.10
2022-10-26T18:06:22.569Z,5.68
2022-10-26T18:08:49.065Z,4.22
2022-10-26T18:11:22.508Z,5.18
2022-10-26T18:13:53.638Z,5.00
2022-10-26T18:16:22.144Z,4.40
2022-10-26T18:18:52.066Z,4.97
2022-10-26T18:21:20.376Z,4.70
2022-10-26T18:23:47.254Z,4.50
2022-10-26T18:26:19.559Z,3.92
2022-10-26T18:28:46.332Z,4.40
2022-10-26T18:31:15.858Z,4.53
2022-10-26T18:33:42.649Z,4.90
2022-10-26T18:36:12.008Z,4.10
2022-10-26T18:38:39.954Z,4.30
2022-10-26T18:41:07.926Z,5.32
2022-10-26T18:43:34.388Z,4.65
2022-10-26T18:46:06.135Z,5.13
2022-10-26T18:48:32.593Z,5.60
2022-10-26T18:51:06.474Z,5.00
2022-10-26T18:53:34.718Z,5.82
2022-10-26T18:56:03.258Z,5.97
2022-10-26T18:58:35.020Z,6.70
2022-10-26T19:01:07.062Z,7.00
2022-10-26T19:03:33.974Z,6.40
2022-10-26T19:06:22.247Z,5.75
2022-10-26T19:08:48.719Z,5.82
2022-10-26T19:11:17.781Z,5.28
2022-10-26T19:13:44.536Z,6.45
2022-10-26T19:16:17.230Z,5.95
2022-10-26T19:18:55.995Z,4.82
2022-10-26T19:21:22.816Z,6.45
2022-10-26T19:23:54.509Z,6.82
2022-10-26T19:28:57.525Z,5.57
2022-10-26T19:31:27.279Z,6.28
2022-10-26T19:33:56.406Z,6.18
2022-10-26T19:36:22.919Z,5.43
2022-10-26T19:38:49.490Z,5.22
2022-10-26T19:41:16.882Z,5.47
2022-10-26T19:43:44.755Z,5.90
2022-10-26T19:46:13.860Z,6.40
2022-10-26T19:48:41.216Z,6.35
2022-10-26T19:51:08.564Z,6.30
2022-10-26T19:53:35.650Z,4.68
2022-10-26T19:56:02.553Z,5.53
2022-10-26T19:58:31.261Z,5.68
2022-10-26T20:01:02.671Z,6.72
2022-10-26T20:03:29.864Z,5.40
2022-10-26T20:05:57.716Z,5.95
2022-10-26T20:08:25.027Z,5.15
2022-10-26T20:10:57.127Z,5.05
2022-10-26T20:13:24.344Z,3.95
2022-10-26T20:15:51.826Z,5.30
2022-10-26T20:18:18.838Z,4.90
2022-10-26T20:20:45.585Z,4.35
2022-10-26T20:23:12.417Z,5.55
2022-10-26T20:25:45.113Z,5.32
2022-10-26T20:28:11.886Z,5.32
2022-10-26T20:30:38.430Z,5.20
2022-10-26T20:33:05.271Z,5.30
2022-10-26T20:35:32.460Z,5.18
2022-10-26T20:37:59.450Z,5.32
2022-10-26T20:40:27.668Z,5.80
2022-10-26T20:42:54.675Z,5.15
2022-10-26T20:45:31.652Z,6.20
2022-10-26T20:48:00.082Z,5.93
2022-10-26T20:50:29.374Z,6.68
2022-10-26T20:53:10.732Z,5.97
2022-10-26T20:55:45.483Z,5.95
2022-10-26T20:58:21.394Z,5.53
2022-10-26T21:00:55.721Z,5.82
2022-10-26T21:03:22.176Z,6.10
2022-10-26T21:05:48.600Z,6.00
2022-10-26T21:08:15.086Z,6.32
2022-10-26T21:10:41.587Z,6.55
2022-10-26T21:13:08.031Z,5.68
2022-10-26T21:15:35.827Z,6.15
2022-10-26T21:18:02.895Z,6.32
2022-10-26T21:20:29.654Z,6.03
2022-10-26T21:22:56.082Z,6.47
2022-10-26T21:25:22.722Z,6.55
2022-10-26T21:27:53.906Z,6.47
2022-10-26T21:30:20.436Z,6.90
2022-10-26T21:32:46.935Z,6.03
2022-10-26T21:35:13.455Z,6.63
2022-10-26T21:37:39.857Z,6.60
2022-10-26T21:40:06.950Z,6.78
2022-10-26T21:42:33.370Z,7.22
2022-10-26T21:44:59.783Z,7.88
2022-10-26T21:47:26.324Z,7.03
2022-10-26T21:49:52.780Z,6.25
2022-10-26T21:52:19.315Z,6.88
2022-10-26T21:54:45.772Z,6.32
2022-10-26T21:57:12.197Z,6.70
2022-10-26T21:59:38.762Z,6.20
2022-10-26T22:02:05.410Z,7.30
2022-10-26T22:04:31.988Z,7.75
2022-10-26T22:06:58.448Z,6.70
2022-10-26T22:09:24.911Z,7.95
2022-10-26T22:11:51.340Z,7.35
2022-10-26T22:14:18.282Z,7.15
2022-10-26T22:16:44.740Z,6.90
2022-10-26T22:19:12.124Z,7.82
2022-10-26T22:21:41.044Z,7.55
2022-10-26T22:24:08.058Z,6.45
2022-10-26T22:26:36.250Z,7.75
2022-10-26T22:29:03.074Z,6.95
2022-10-26T22:31:32.249Z,7.00
2022-10-26T22:34:07.362Z,7.05
2022-10-26T22:36:34.981Z,6.97
2022-10-26T22:39:01.558Z,6.80
2022-10-26T22:41:28.093Z,6.63
2022-10-26T22:43:54.590Z,7.05
2022-10-26T22:46:23.878Z,5.63
2022-10-26T22:48:58.153Z,7.10
2022-10-26T22:51:26.967Z,7.03
2022-10-26T22:53:55.074Z,6.88
2022-10-26T22:56:23.352Z,6.78
2022-10-26T22:58:51.975Z,6.88
2022-10-26T23:01:27.642Z,6.65
2022-10-26T23:03:57.489Z,6.40
2022-10-26T23:06:25.783Z,7.03
2022-10-26T23:08:52.172Z,6.78
2022-10-26T23:11:20.603Z,6.60
2022-10-26T23:13:47.533Z,6.50
2022-10-26T23:16:17.861Z,6.40
2022-10-26T23:18:44.406Z,6.07
2022-10-26T23:21:12.679Z,6.65
2022-10-26T23:23:39.639Z,6.68
2022-10-26T23:26:12.194Z,6.20
2022-10-26T23:28:39.482Z,6.90
2022-10-26T23:31:06.557Z,7.30
2022-10-26T23:33:33.619Z,7.50
2022-10-26T23:36:01.185Z,7.00
2022-10-26T23:38:27.723Z,6.90
2022-10-26T23:40:58.893Z,6.75
2022-10-26T23:43:26.867Z,5.80
2022-10-26T23:45:56.594Z,6.32
2022-10-26T23:48:23.221Z,6.70
2022-10-26T23:50:50.946Z,6.55
2022-10-26T23:53:21.449Z,6.63
2022-10-26T23:55:48.305Z,6.53
2022-10-26T23:58:15.529Z,6.30
